Ваеги

Карта отелей и гостиниц, располагающихся рядом с аэропортом Ваеги :

Ваеги Чукотский автономный округ 64° 10' 0.1812" N, 171° 3' 24.7788" E
Ваеги Чукотский автономный округ 64° 10' 0.1812" N, 171° 3' 24.7788" E
Код аэродрома ИКАО
UHAW
Код аэродрома RU
УХАВ
Координаты
N64.16672° E171.05688°
Превышение над уровнем моря
53
Основная полоса
04/22
Курс магнитный
040,2/220,2
Длина основной ВПП
509
Ширина основной ВПП
50
Покрытие основной ВПП
Нетвёрдое (грунт)
Освещение ВПП
Нет
Тип: 
Аэродром
Класс аэродрома: 
Принадлежность: 
ГА
Статус: 
Действующий
Сайт: 
E-mail аэродрома: 
Страна: 
Россия
Регион: 
Чукотский автономный округ
Город: 
Дополнительная информация: 
Оператор: нет данных.

Найти трансфер

С помощью этой формы Вы можете найти трансфер из аэропорта Ваеги в город, аэропорт или вокзал:

Карта места

Javascript is required to view this map.

Погода в аэропортах:

Авиационная погода в Гродно

Регион: 
Погода METAR: 
UMMG 281100Z 14003MPS 5000 BR SCT020 OVC100 02/M00 Q1000 NOSIG
Время наблюдения
2021-11-28T11:00:00Z
Температура C
2.0
Точка росы
0.0
Направление ветра
140
Скорость ветра (узлы)
6
Метео видимость
3.11
Явления погоды
BR
Условия полета
MVFR
Аэропорт подробнее: 

Авиационная погода в Белгороде

Регион: 
Погода METAR: 
UUOB 281300Z 17002MPS 7000 2000E BR OVC012 07/06 Q1008 R11/290060 NOSIG
Время наблюдения
2021-11-28T13:00:00Z
Температура C
7.0
Точка росы
6.0
Направление ветра
170
Скорость ветра (узлы)
4
Метео видимость
4.35
Явления погоды
BR
Условия полета
MVFR
Аэропорт подробнее: 

Авиационная погода в Борисполе

Регион: 
Погода METAR: 
UKBB 281300Z 12005MPS 0750 0500W R36R/1000D R36L/0900D PRFG OVC001 04/04 Q1003 TEMPO 0300 FG VV001
Время наблюдения
2021-11-28T13:00:00Z
Температура C
4.0
Точка росы
4.0
Направление ветра
120
Скорость ветра (узлы)
10
Метео видимость
0.47
Явления погоды
PRFG
Условия полета
LIFR
Аэропорт подробнее: 

Авиационная погода в Череповце

Регион: 
Погода METAR: 
ULWC 281300Z 25005G10MPS 9999 -SHSNRA BKN006 OVC013CB 01/M00 Q0998 R21/690239 NOSIG RMK QFE738/0985
Время наблюдения
2021-11-28T13:00:00Z
Температура C
1.0
Точка росы
0.0
Направление ветра
250
Скорость ветра (узлы)
10
Метео видимость
6.21
Явления погоды
-SHSN -SHRA
Условия полета
IFR
Аэропорт подробнее: